Time;durP1;ratioP1;P1;durP2;ratioP2;P2;SDS_P1;SDS_P2;PMS_P1;PMS_P2;Temp;Humidity;BMP_temperature;BMP_pressure;BME280_temperature;BME280_humidity;BME280_pressure;Samples;Min_cycle;Max_cycle;Signal;HPM_P1;HPM_P2
2023/06/22 00:00:59;;;;;;;19.58;16.83;;;19.20;99.90;;;;;;5091689;28;20056;-64
2023/06/22 00:03:25;;;;;;;19.55;17.50;;;19.10;99.90;;;;;;5073418;28;20444;-64
2023/06/22 00:05:52;;;;;;;18.90;16.02;;;19.20;99.90;;;;;;5091329;28;20044;-63
2023/06/22 00:08:19;;;;;;;22.48;19.23;;;19.10;99.90;;;;;;5091212;28;20044;-64
2023/06/22 00:10:46;;;;;;;24.52;17.80;;;19.10;99.90;;;;;;5091543;28;20449;-64
2023/06/22 00:13:13;;;;;;;21.00;18.88;;;19.00;99.90;;;;;;5091314;28;20103;-64
2023/06/22 00:15:41;;;;;;;21.55;18.65;;;19.00;99.90;;;;;;5091502;28;20123;-64
2023/06/22 00:18:09;;;;;;;22.13;19.45;;;19.00;99.90;;;;;;5091100;28;20048;-64
2023/06/22 00:20:37;;;;;;;21.45;19.17;;;19.00;99.90;;;;;;5090827;28;20362;-64
2023/06/22 00:23:09;;;;;;;25.10;19.90;;;19.00;99.90;;;;;;5070765;28;20084;-64
2023/06/22 00:25:42;;;;;;;23.15;20.65;;;19.00;99.90;;;;;;5091387;28;20052;-63
2023/06/22 00:28:08;;;;;;;24.13;21.52;;;19.00;99.90;;;;;;5090842;28;20052;-64
2023/06/22 00:30:36;;;;;;;25.30;20.77;;;19.00;99.90;;;;;;5073203;28;20392;-64
2023/06/22 00:33:02;;;;;;;25.42;22.08;;;19.00;99.90;;;;;;5074602;28;20083;-64
2023/06/22 00:35:29;;;;;;;26.88;22.17;;;19.00;99.90;;;;;;5071044;28;20067;-64
2023/06/22 00:38:04;;;;;;;26.42;21.65;;;19.00;99.90;;;;;;5070738;28;20105;-64
2023/06/22 00:40:32;;;;;;;26.48;22.13;;;19.00;99.90;;;;;;5053758;28;20486;-64
2023/06/22 00:42:59;;;;;;;27.15;22.10;;;19.00;99.90;;;;;;5070806;28;20268;-65
2023/06/22 00:45:26;;;;;;;26.80;21.80;;;19.00;99.90;;;;;;5071064;28;20044;-63
2023/06/22 00:47:53;;;;;;;24.67;20.88;;;19.00;99.90;;;;;;5070498;28;20044;-63
2023/06/22 00:50:21;;;;;;;26.10;21.42;;;19.00;99.90;;;;;;5074723;28;20036;-64
2023/06/22 00:52:58;;;;;;;28.73;22.90;;;19.00;99.90;;;;;;5074662;28;20103;-65
2023/06/22 00:55:28;;;;;;;;;;;19.10;99.90;;;;;;5057234;28;20416;-65
2023/06/22 00:57:55;;;;;;;26.35;23.35;;;19.00;99.90;;;;;;5074523;28;19938;-65
2023/06/22 01:00:24;;;;;;;25.40;22.70;;;19.00;99.90;;;;;;5074600;28;20385;-64
2023/06/22 01:02:52;;;;;;;28.23;25.13;;;18.90;99.90;;;;;;5056660;28;20049;-64
2023/06/22 01:05:20;;;;;;;26.98;22.40;;;18.90;99.90;;;;;;5074724;28;20079;-64
2023/06/22 01:07:46;;;;;;;28.58;24.83;;;18.80;99.90;;;;;;5074477;28;20118;-64
2023/06/22 01:10:27;;;;;;;29.58;24.45;;;18.80;99.90;;;;;;5074859;28;20048;-64
2023/06/22 01:13:01;;;;;;;31.15;25.42;;;18.80;99.90;;;;;;5074337;28;20048;-64
2023/06/22 01:15:41;;;;;;;28.33;25.17;;;18.80;99.90;;;;;;5057941;28;20052;-65
2023/06/22 01:18:09;;;;;;;27.27;23.75;;;18.70;99.90;;;;;;5074085;28;20644;-64
2023/06/22 01:20:36;;;;;;;26.75;22.00;;;18.70;99.90;;;;;;5056573;28;20384;-64
2023/06/22 01:23:16;;;;;;;29.38;24.42;;;18.70;99.90;;;;;;5074353;28;20048;-64
2023/06/22 01:25:47;;;;;;;26.10;21.85;;;18.60;99.90;;;;;;5074384;28;20036;-64
2023/06/22 01:28:25;;;;;;;24.25;21.67;;;18.60;99.90;;;;;;5056355;28;20067;-64
2023/06/22 01:31:05;;;;;;;31.30;22.55;;;18.60;99.90;;;;;;5074194;28;20059;-64
2023/06/22 01:33:36;;;;;;;27.90;23.92;;;18.60;99.90;;;;;;5093764;28;20125;-64
2023/06/22 01:36:05;;;;;;;27.60;23.30;;;18.60;99.90;;;;;;5094342;28;20067;-64
2023/06/22 01:38:33;;;;;;;28.13;24.80;;;18.50;99.90;;;;;;5094164;28;20109;-64
2023/06/22 01:41:00;;;;;;;29.90;25.13;;;18.60;99.90;;;;;;5094430;28;20052;-64
2023/06/22 01:43:27;;;;;;;26.20;21.67;;;18.50;99.90;;;;;;5093621;28;20530;-64
2023/06/22 01:45:55;;;;;;;29.63;24.48;;;18.40;99.90;;;;;;5076635;28;20048;-65
2023/06/22 01:48:22;;;;;;;30.92;24.63;;;18.40;99.90;;;;;;5093507;28;20420;-64
2023/06/22 01:50:48;;;;;;;28.02;23.95;;;18.40;99.90;;;;;;5076277;28;20043;-64
2023/06/22 01:53:15;;;;;;;31.35;26.55;;;18.30;99.90;;;;;;5094000;28;20063;-64
2023/06/22 01:55:41;;;;;;;33.28;27.85;;;18.40;99.90;;;;;;5093624;28;20326;-64
2023/06/22 01:58:07;;;;;;;30.85;25.50;;;18.30;99.90;;;;;;5059268;28;20052;-64
2023/06/22 02:00:38;;;;;;;30.33;25.98;;;18.20;99.90;;;;;;5093343;28;20043;-64
2023/06/22 02:03:16;;;;;;;33.00;26.33;;;18.20;99.90;;;;;;5093808;28;20044;-64
2023/06/22 02:05:49;;;;;;;32.72;28.30;;;18.10;99.90;;;;;;5093527;28;20418;-64
2023/06/22 02:08:24;;;;;;;34.15;26.63;;;18.10;99.90;;;;;;5093453;28;20048;-64
2023/06/22 02:10:53;;;;;;;31.33;26.55;;;18.20;99.90;;;;;;5093459;28;20402;-64
2023/06/22 02:13:20;;;;;;;34.78;29.52;;;18.10;99.90;;;;;;5093406;28;20044;-64
2023/06/22 02:15:47;;;;;;;33.70;29.83;;;18.00;99.90;;;;;;5093602;28;20048;-64
2023/06/22 02:18:14;;;;;;;32.63;27.10;;;18.00;99.90;;;;;;5093216;28;20055;-65
2023/06/22 02:20:40;;;;;;;33.85;27.25;;;18.00;99.90;;;;;;5093237;28;20460;-63
2023/06/22 02:23:07;;;;;;;32.92;27.38;;;18.10;99.90;;;;;;5093225;28;20085;-64
2023/06/22 02:25:34;;;;;;;35.20;29.00;;;18.00;99.90;;;;;;5076136;28;20059;-64
2023/06/22 02:28:01;;;;;;;35.75;28.27;;;18.00;99.90;;;;;;5075132;28;20403;-64
2023/06/22 02:30:27;;;;;;;33.17;26.75;;;18.00;99.90;;;;;;5093557;28;20048;-64
2023/06/22 02:32:58;;;;;;;34.40;28.08;;;18.00;99.90;;;;;;5074729;28;20273;-64
2023/06/22 02:35:26;;;;;;;33.95;29.42;;;18.00;99.90;;;;;;5093156;28;20059;-64
2023/06/22 02:37:52;;;;;;;32.10;28.02;;;17.90;99.90;;;;;;5092821;28;20055;-65
2023/06/22 02:40:18;;;;;;;36.45;29.20;;;17.90;99.90;;;;;;5093199;28;20055;-64
2023/06/22 02:42:45;;;;;;;34.58;29.42;;;18.00;99.90;;;;;;5093190;28;20044;-64
2023/06/22 02:45:11;;;;;;;38.58;30.40;;;18.00;99.90;;;;;;5093077;28;20125;-64
2023/06/22 02:47:37;;;;;;;34.40;29.25;;;17.90;99.90;;;;;;5092605;28;20055;-64
2023/06/22 02:50:04;;;;;;;35.65;31.13;;;17.90;99.90;;;;;;5092983;28;20048;-64
2023/06/22 02:52:30;;;;;;;34.97;27.05;;;17.80;99.90;;;;;;5092876;28;20048;-64
2023/06/22 02:54:56;;;;;;;35.92;28.42;;;17.80;99.90;;;;;;5092628;28;20056;-64
2023/06/22 02:57:23;;;;;;;37.67;29.58;;;17.80;99.90;;;;;;5092311;28;20181;-64
2023/06/22 02:59:49;;;;;;;34.78;28.17;;;17.80;99.90;;;;;;5075016;28;20060;-64
2023/06/22 03:02:15;;;;;;;34.33;27.65;;;17.70;99.90;;;;;;5092853;28;20051;-64
2023/06/22 03:04:42;;;;;;;35.47;28.17;;;17.80;99.90;;;;;;5092435;28;20112;-64
2023/06/22 03:07:08;;;;;;;32.50;27.55;;;17.70;99.90;;;;;;5092437;28;20059;-64
2023/06/22 03:09:35;;;;;;;32.00;26.60;;;17.70;99.90;;;;;;5092709;28;20059;-64
2023/06/22 03:12:02;;;;;;;35.75;29.75;;;17.70;99.90;;;;;;5091699;28;20066;-64
2023/06/22 03:14:28;;;;;;;35.40;29.42;;;17.70;99.90;;;;;;5092272;28;20048;-65
2023/06/22 03:16:54;;;;;;;31.27;26.80;;;17.60;99.90;;;;;;5092558;28;20325;-64
2023/06/22 03:19:21;;;;;;;31.33;25.17;;;17.60;99.90;;;;;;5092197;28;20048;-64
2023/06/22 03:21:47;;;;;;;31.75;27.52;;;17.60;99.90;;;;;;5092472;28;20048;-64
2023/06/22 03:24:13;;;;;;;31.02;25.75;;;17.60;99.90;;;;;;5092069;28;20056;-64
2023/06/22 03:26:40;;;;;;;35.78;28.70;;;17.60;99.90;;;;;;5092160;28;20063;-64
2023/06/22 03:29:06;;;;;;;34.03;26.45;;;17.50;99.90;;;;;;5091978;28;20048;-64
2023/06/22 03:31:32;;;;;;;33.08;27.35;;;17.50;99.90;;;;;;5088534;28;20052;-63
2023/06/22 03:33:58;;;;;;;32.25;25.40;;;17.50;99.90;;;;;;5071860;28;20060;-64
2023/06/22 03:36:25;;;;;;;29.30;25.50;;;17.50;99.90;;;;;;5071540;28;20048;-64
2023/06/22 03:38:51;;;;;;;33.58;27.65;;;17.50;99.90;;;;;;5071141;28;20044;-64
2023/06/22 03:41:17;;;;;;;32.45;26.30;;;17.40;99.90;;;;;;5054058;28;20325;-64
2023/06/22 03:43:44;;;;;;;32.05;28.58;;;17.50;99.90;;;;;;5053225;28;20350;-64
2023/06/22 03:46:10;;;;;;;33.75;26.92;;;17.40;99.90;;;;;;5054256;28;20377;-64
2023/06/22 03:48:36;;;;;;;30.80;25.85;;;17.40;99.90;;;;;;5071320;28;20090;-64
2023/06/22 03:51:03;;;;;;;32.90;27.52;;;17.30;99.90;;;;;;5071261;28;20354;-64
2023/06/22 03:53:29;;;;;;;31.17;25.55;;;17.40;99.90;;;;;;5071204;28;20048;-64
2023/06/22 03:55:56;;;;;;;31.45;25.85;;;17.40;99.90;;;;;;5071439;28;20052;-64
2023/06/22 03:58:22;;;;;;;31.70;26.60;;;17.40;99.90;;;;;;5053310;28;20412;-64
2023/06/22 04:00:50;;;;;;;31.63;26.15;;;17.50;99.90;;;;;;5071331;28;20048;-64
2023/06/22 04:03:18;;;;;;;32.33;27.67;;;17.40;99.90;;;;;;5053455;28;20041;-64
2023/06/22 04:05:45;;;;;;;30.23;24.77;;;17.50;99.90;;;;;;5053755;28;20053;-64
2023/06/22 04:08:13;;;;;;;29.70;25.35;;;17.40;99.90;;;;;;5070852;28;20107;-63
2023/06/22 04:10:40;;;;;;;31.83;24.67;;;17.40;99.90;;;;;;5053597;28;20477;-64
2023/06/22 04:13:06;;;;;;;33.03;28.35;;;17.50;99.90;;;;;;5052842;28;20404;-63
2023/06/22 04:15:33;;;;;;;30.27;26.00;;;17.50;99.90;;;;;;5071203;28;20469;-64
2023/06/22 04:17:59;;;;;;;32.17;27.02;;;17.60;99.90;;;;;;5071307;28;20225;-66
2023/06/22 04:20:25;;;;;;;32.35;28.73;;;17.60;99.90;;;;;;5071245;28;20044;-64
2023/06/22 04:22:54;;;;;;;32.70;27.85;;;17.60;99.90;;;;;;5070871;28;20044;-64
2023/06/22 04:25:23;;;;;;;31.75;27.83;;;17.70;99.90;;;;;;5053080;28;20055;-64
2023/06/22 04:27:49;;;;;;;31.58;25.10;;;17.70;99.90;;;;;;5053099;28;20052;-64
2023/06/22 04:30:16;;;;;;;32.10;27.38;;;17.60;99.90;;;;;;5070960;28;20048;-64
2023/06/22 04:32:43;;;;;;;33.30;27.30;;;17.60;99.90;;;;;;5083936;28;20282;-64
2023/06/22 04:35:11;;;;;;;31.73;28.35;;;17.70;99.90;;;;;;5090587;28;20062;-64
2023/06/22 04:37:39;;;;;;;33.20;28.58;;;17.80;99.90;;;;;;5090774;28;20048;-63
2023/06/22 04:40:06;;;;;;;32.83;27.33;;;17.80;99.90;;;;;;5091250;28;20369;-64
2023/06/22 04:42:34;;;;;;;32.60;27.95;;;17.80;99.90;;;;;;5091066;28;20040;-64
2023/06/22 04:45:00;;;;;;;33.33;26.17;;;17.90;99.90;;;;;;5091276;28;20044;-64
2023/06/22 04:47:27;;;;;;;35.63;28.90;;;17.90;99.90;;;;;;5090797;28;20118;-64
2023/06/22 04:49:53;;;;;;;35.22;31.00;;;17.90;99.90;;;;;;5091366;28;20051;-64
2023/06/22 04:52:20;;;;;;;35.67;29.77;;;18.00;99.90;;;;;;5091057;28;20056;-64
2023/06/22 04:54:50;;;;;;;34.80;29.25;;;18.00;99.90;;;;;;5090649;28;20051;-64
2023/06/22 04:57:16;;;;;;;36.95;29.73;;;18.20;99.90;;;;;;5090281;28;20051;-64
2023/06/22 04:59:43;;;;;;;36.55;31.02;;;18.50;99.90;;;;;;5090939;28;20060;-64
2023/06/22 05:02:10;;;;;;;36.95;28.38;;;19.10;99.90;;;;;;5090798;28;20044;-64
2023/06/22 05:04:38;;;;;;;35.38;28.00;;;19.70;99.90;;;;;;5090319;28;20052;-63
2023/06/22 05:07:04;;;;;;;33.38;28.15;;;20.20;99.90;;;;;;5078458;28;20048;-65
2023/06/22 05:09:31;;;;;;;36.60;31.17;;;20.80;99.90;;;;;;5080521;28;20052;-64
2023/06/22 05:11:57;;;;;;;34.65;29.40;;;21.40;99.90;;;;;;5062089;28;20055;-64
2023/06/22 05:14:24;;;;;;;36.05;32.20;;;21.70;99.90;;;;;;5081018;28;20071;-64
2023/06/22 05:16:51;;;;;;;33.17;28.70;;;21.80;99.90;;;;;;5073090;28;20048;-64
2023/06/22 05:19:18;;;;;;;34.40;30.63;;;22.00;99.90;;;;;;5070000;28;20136;-63
2023/06/22 05:21:44;;;;;;;35.13;29.77;;;22.20;99.90;;;;;;5070432;28;20040;-64
2023/06/22 05:24:10;;;;;;;32.95;28.25;;;22.70;99.90;;;;;;5046468;28;20317;-64
2023/06/22 05:26:37;;;;;;;35.55;29.90;;;23.00;99.90;;;;;;5090547;28;20117;-64
2023/06/22 05:29:03;;;;;;;33.88;29.73;;;23.20;99.90;;;;;;5091044;28;20112;-64
2023/06/22 05:31:30;;;;;;;31.50;27.92;;;23.40;99.90;;;;;;5073211;28;20060;-64
2023/06/22 05:33:56;;;;;;;31.65;28.08;;;23.60;99.90;;;;;;5090430;28;20422;-64
2023/06/22 05:36:25;;;;;;;30.80;27.60;;;23.80;99.90;;;;;;5075248;28;20079;-64
2023/06/22 05:38:56;;;;;;;31.08;26.50;;;24.20;99.90;;;;;;5094202;28;20044;-64
2023/06/22 05:41:23;;;;;;;25.50;22.75;;;24.20;99.90;;;;;;5094093;28;20454;-64
2023/06/22 05:43:49;;;;;;;27.45;24.52;;;24.30;99.90;;;;;;5093527;28;20086;-63
2023/06/22 05:46:16;;;;;;;26.25;23.23;;;24.10;99.90;;;;;;5093085;28;20422;-64
2023/06/22 05:48:42;;;;;;;27.98;24.98;;;23.90;99.90;;;;;;5093694;28;20066;-64
2023/06/22 05:51:08;;;;;;;27.98;24.73;;;23.60;99.90;;;;;;5094145;28;20415;-63
2023/06/22 05:53:34;;;;;;;30.58;26.27;;;23.40;99.90;;;;;;5094016;28;20044;-64
2023/06/22 05:56:01;;;;;;;28.10;23.65;;;23.50;99.90;;;;;;5094297;28;20044;-64
2023/06/22 05:58:27;;;;;;;27.33;24.48;;;23.80;99.90;;;;;;5093698;28;20048;-64
2023/06/22 06:00:55;;;;;;;26.60;23.85;;;23.70;99.90;;;;;;5075877;28;20116;-64
2023/06/22 06:03:21;;;;;;;27.05;24.25;;;23.90;99.90;;;;;;5090949;28;20036;-64
2023/06/22 06:05:48;;;;;;;27.75;23.45;;;24.30;99.90;;;;;;5070779;28;20056;-65
2023/06/22 06:08:14;;;;;;;26.65;23.83;;;24.40;99.90;;;;;;5093950;28;20051;-64
2023/06/22 06:10:40;;;;;;;27.45;24.63;;;24.50;99.90;;;;;;5094145;28;20438;-64
2023/06/22 06:13:07;;;;;;;25.67;23.15;;;24.50;99.90;;;;;;5059234;28;20048;-64
2023/06/22 06:15:34;;;;;;;25.42;22.52;;;24.90;99.90;;;;;;5074079;28;20070;-64
2023/06/22 06:18:04;;;;;;;24.75;21.88;;;25.30;99.90;;;;;;5092969;28;20380;-64
2023/06/22 06:20:32;;;;;;;25.42;22.70;;;25.60;99.90;;;;;;5036787;28;20064;-65
2023/06/22 06:22:58;;;;;;;25.35;22.48;;;25.60;99.90;;;;;;5077083;28;20060;-64
2023/06/22 06:25:25;;;;;;;24.02;21.52;;;25.70;99.90;;;;;;5077726;28;20053;-64
2023/06/22 06:27:54;;;;;;;23.75;21.27;;;25.80;99.90;;;;;;5073147;28;20049;-63
2023/06/22 06:30:22;;;;;;;23.42;20.92;;;25.60;99.90;;;;;;5056503;28;20044;-63
2023/06/22 06:32:50;;;;;;;22.45;20.05;;;25.70;99.90;;;;;;5063453;28;20052;-64
2023/06/22 06:35:16;;;;;;;22.23;19.90;;;25.90;99.90;;;;;;5093506;28;20048;-64
2023/06/22 06:37:46;;;;;;;23.10;20.45;;;25.70;99.90;;;;;;5055259;28;20461;-64
2023/06/22 06:40:20;;;;;;;22.95;20.60;;;25.40;99.90;;;;;;5073396;28;20052;-64
2023/06/22 06:42:48;;;;;;;22.63;19.73;;;25.10;99.90;;;;;;5080838;28;20136;-64
2023/06/22 06:45:22;;;;;;;22.40;19.23;;;25.40;99.90;;;;;;5094222;28;20069;-63
2023/06/22 06:47:49;;;;;;;21.45;19.23;;;25.80;99.90;;;;;;5092483;28;20054;-64
2023/06/22 06:50:16;;;;;;;22.05;19.85;;;25.80;99.90;;;;;;5093291;28;20055;-64
2023/06/22 06:52:44;;;;;;;21.00;18.70;;;26.00;99.90;;;;;;5075413;28;20063;-63
2023/06/22 06:55:11;;;;;;;21.17;18.83;;;25.90;99.90;;;;;;5092702;28;20472;-64
2023/06/22 06:57:38;;;;;;;21.77;19.58;;;26.00;99.90;;;;;;5094211;28;20113;-62
2023/06/22 07:00:13;;;;;;;21.23;18.98;;;26.10;99.90;;;;;;5077727;28;20040;-63
2023/06/22 07:02:47;;;;;;;21.88;18.63;;;26.30;99.90;;;;;;5077170;28;20063;-63
2023/06/22 07:05:14;;;;;;;18.30;16.35;;;25.80;99.90;;;;;;5093541;28;20450;-64
2023/06/22 07:07:41;;;;;;;20.40;18.23;;;25.40;99.90;;;;;;5094804;28;20059;-62
2023/06/22 07:10:08;;;;;;;19.55;17.55;;;25.20;99.90;;;;;;5077394;28;20048;-63
2023/06/22 07:12:34;;;;;;;19.42;17.52;;;25.00;99.90;;;;;;5095117;28;20052;-62
2023/06/22 07:15:08;;;;;;;19.05;17.15;;;24.80;99.90;;;;;;5093954;28;20055;-63
2023/06/22 07:17:36;;;;;;;20.92;17.17;;;24.90;99.90;;;;;;5076550;28;20173;-63
2023/06/22 07:20:10;;;;;;;19.83;17.55;;;24.90;99.90;;;;;;5094495;28;20048;-63
2023/06/22 07:22:37;;;;;;;17.35;15.35;;;25.00;99.90;;;;;;5094001;28;20106;-62
2023/06/22 07:25:09;;;;;;;16.70;15.00;;;25.00;99.90;;;;;;5093216;28;20044;-63
2023/06/22 07:27:42;;;;;;;17.73;13.93;;;25.30;99.90;;;;;;5093545;28;20411;-63
2023/06/22 07:30:10;;;;;;;17.42;15.63;;;25.40;99.90;;;;;;5093638;28;20048;-63
2023/06/22 07:32:37;;;;;;;18.73;16.23;;;25.60;99.90;;;;;;5074753;28;20048;-63
2023/06/22 07:35:04;;;;;;;17.70;15.75;;;25.30;99.90;;;;;;5091416;28;20052;-63
2023/06/22 07:37:32;;;;;;;17.48;15.57;;;25.20;99.90;;;;;;5075668;28;20044;-63
2023/06/22 07:39:58;;;;;;;16.95;15.25;;;25.10;99.90;;;;;;5093858;28;20059;-64
2023/06/22 07:42:25;;;;;;;17.98;15.82;;;25.20;99.90;;;;;;5092995;28;20048;-64
2023/06/22 07:44:52;;;;;;;17.38;15.57;;;25.30;99.90;;;;;;5072416;28;20048;-63
2023/06/22 07:47:25;;;;;;;17.27;15.48;;;25.20;99.90;;;;;;5073115;28;20056;-63
2023/06/22 07:49:51;;;;;;;16.13;14.52;;;24.90;99.90;;;;;;5055574;28;20056;-64
2023/06/22 07:52:18;;;;;;;17.42;15.07;;;25.00;99.90;;;;;;5072700;28;20063;-63
2023/06/22 07:54:44;;;;;;;16.60;14.18;;;24.90;99.90;;;;;;5054657;28;20117;-62
2023/06/22 07:57:11;;;;;;;16.63;14.85;;;24.90;99.90;;;;;;5071183;28;20534;-62
2023/06/22 07:59:37;;;;;;;17.13;13.98;;;25.00;99.90;;;;;;5053522;28;20533;-63
2023/06/22 08:02:04;;;;;;;16.05;12.93;;;25.00;99.90;;;;;;5054136;28;20480;-65
2023/06/22 08:04:33;;;;;;;16.30;14.50;;;25.20;99.90;;;;;;5071146;28;20048;-63
2023/06/22 08:07:05;;;;;;;18.02;14.85;;;25.30;99.90;;;;;;5071106;28;20076;-62
2023/06/22 08:09:33;;;;;;;17.15;15.35;;;25.20;99.90;;;;;;5071924;28;20122;-62
2023/06/22 08:12:00;;;;;;;17.65;14.70;;;25.30;99.90;;;;;;5054213;28;20480;-62
2023/06/22 08:14:28;;;;;;;15.27;13.68;;;25.20;99.90;;;;;;5074883;28;20070;-63
2023/06/22 08:16:54;;;;;;;17.52;15.80;;;25.20;99.90;;;;;;5073744;28;20062;-63
2023/06/22 08:19:20;;;;;;;16.08;14.15;;;25.40;99.90;;;;;;5091018;28;20480;-61
2023/06/22 08:21:47;;;;;;;15.35;13.75;;;25.40;99.90;;;;;;5091537;28;20056;-62
2023/06/22 08:24:13;;;;;;;14.82;12.70;;;25.40;99.90;;;;;;5089723;28;20063;-62
2023/06/22 08:26:39;;;;;;;13.32;11.93;;;25.40;99.90;;;;;;5073543;28;20466;-64
2023/06/22 08:29:06;;;;;;;17.83;12.75;;;25.60;99.90;;;;;;5078752;28;20287;-63
2023/06/22 08:31:34;;;;;;;13.40;12.00;;;25.70;99.90;;;;;;5074178;28;20082;-62
2023/06/22 08:34:00;;;;;;;15.15;12.50;;;25.80;99.90;;;;;;5091912;28;20117;-64
2023/06/22 08:36:32;;;;;;;17.65;13.95;;;25.80;99.90;;;;;;5092374;28;20121;-63
2023/06/22 08:39:01;;;;;;;15.32;12.93;;;25.70;99.90;;;;;;5091921;28;20051;-63
2023/06/22 08:41:27;;;;;;;14.82;13.27;;;25.70;99.90;;;;;;5074075;28;20048;-63
2023/06/22 08:43:53;;;;;;;15.00;13.50;;;25.70;99.90;;;;;;5091300;28;20105;-63
2023/06/22 08:46:29;;;;;;;14.98;12.13;;;25.50;99.90;;;;;;5073397;28;20044;-63
2023/06/22 08:48:59;;;;;;;14.13;11.98;;;25.60;99.90;;;;;;5091109;28;20464;-63
2023/06/22 08:51:26;;;;;;;12.15;10.90;;;25.80;99.90;;;;;;5091506;28;20048;-64
2023/06/22 08:53:52;;;;;;;14.20;10.80;;;25.70;99.90;;;;;;5073506;28;20040;-63
2023/06/22 08:56:19;;;;;;;13.15;11.75;;;25.70;99.90;;;;;;5091310;28;20105;-63
2023/06/22 08:58:45;;;;;;;14.07;12.38;;;25.80;99.90;;;;;;5073086;28;20121;-63
2023/06/22 09:01:11;;;;;;;12.85;11.55;;;25.70;99.90;;;;;;5073533;28;20052;-63
2023/06/22 09:03:38;;;;;;;15.70;12.20;;;25.80;99.90;;;;;;5072883;28;20051;-63
2023/06/22 09:06:04;;;;;;;13.23;11.30;;;25.90;99.90;;;;;;5091509;28;20125;-63
2023/06/22 09:08:30;;;;;;;13.75;12.07;;;25.80;99.90;;;;;;5090847;28;20451;-64
2023/06/22 09:10:56;;;;;;;12.48;10.55;;;25.90;99.90;;;;;;5094371;28;20052;-63
2023/06/22 09:13:23;;;;;;;11.50;10.30;;;26.10;99.90;;;;;;5094404;28;20059;-63
2023/06/22 09:15:49;;;;;;;12.48;11.18;;;26.10;99.90;;;;;;5094928;28;20047;-63
2023/06/22 09:18:15;;;;;;;11.82;10.45;;;26.20;99.90;;;;;;5094462;28;20158;-64
2023/06/22 09:20:45;;;;;;;12.05;10.80;;;26.20;99.90;;;;;;5077542;28;20048;-64
2023/06/22 09:23:11;;;;;;;11.07;9.38;;;26.10;99.90;;;;;;5094469;28;20423;-64
2023/06/22 09:25:37;;;;;;;11.70;10.23;;;26.10;99.90;;;;;;5094773;28;20048;-63
2023/06/22 09:28:03;;;;;;;14.77;10.13;;;26.20;99.90;;;;;;5071938;28;20045;-64
2023/06/22 09:30:30;;;;;;;14.05;11.27;;;26.20;99.90;;;;;;5057129;28;20411;-62
2023/06/22 09:32:56;;;;;;;21.38;10.48;;;26.20;99.90;;;;;;5074844;28;20102;-63
2023/06/22 09:35:22;;;;;;;13.55;9.45;;;26.30;99.90;;;;;;5093182;28;20060;-64
2023/06/22 09:37:48;;;;;;;13.02;9.10;;;26.60;99.90;;;;;;5077352;28;20044;-63
2023/06/22 09:40:16;;;;;;;9.77;8.68;;;26.80;99.90;;;;;;5094951;28;20353;-59
2023/06/22 09:42:43;;;;;;;11.32;8.68;;;26.80;99.90;;;;;;5095287;28;20044;-63
2023/06/22 09:45:09;;;;;;;10.30;9.02;;;26.90;99.90;;;;;;5095399;28;20048;-62
2023/06/22 09:47:36;;;;;;;12.68;9.18;;;27.00;99.90;;;;;;5095306;28;20076;-63
2023/06/22 09:50:02;;;;;;;11.23;10.13;;;27.00;99.90;;;;;;5078244;28;20109;-62
2023/06/22 09:52:28;;;;;;;10.45;9.35;;;27.10;99.90;;;;;;5096938;28;20087;-61
2023/06/22 09:54:55;;;;;;;10.32;8.60;;;27.00;99.90;;;;;;5096778;28;20054;-61
2023/06/22 09:57:21;;;;;;;9.93;8.93;;;27.00;99.90;;;;;;5096239;28;20067;-61
2023/06/22 09:59:47;;;;;;;10.23;9.00;;;27.20;99.90;;;;;;5095573;28;20036;-63
2023/06/22 10:02:13;;;;;;;11.10;9.57;;;27.20;99.90;;;;;;5094968;28;20105;-62
2023/06/22 10:04:41;;;;;;;10.60;8.77;;;27.40;99.90;;;;;;5093940;28;20383;-63
2023/06/22 10:07:07;;;;;;;10.30;9.30;;;27.40;99.90;;;;;;5077181;28;20056;-62
2023/06/22 10:09:34;;;;;;;10.40;8.48;;;27.20;99.90;;;;;;5094964;28;20465;-63
2023/06/22 10:12:00;;;;;;;12.13;8.98;;;27.30;99.90;;;;;;5095331;28;20047;-64
2023/06/22 10:14:28;;;;;;;9.27;8.38;;;27.20;99.90;;;;;;5077443;28;20181;-64
2023/06/22 10:16:54;;;;;;;8.40;7.43;;;27.30;99.90;;;;;;5095123;28;20048;-62
2023/06/22 10:19:21;;;;;;;9.02;7.50;;;27.40;99.90;;;;;;5095674;28;20044;-63
2023/06/22 10:21:47;;;;;;;9.05;8.02;;;27.50;99.90;;;;;;5093907;28;20435;-64
2023/06/22 10:24:13;;;;;;;12.30;7.97;;;27.50;99.90;;;;;;5093582;28;20071;-63
2023/06/22 10:26:39;;;;;;;8.57;6.78;;;27.60;99.70;;;;;;5075374;28;20115;-63
2023/06/22 10:29:06;;;;;;;9.63;7.55;;;27.60;99.80;;;;;;5080525;28;20080;-64
2023/06/22 10:31:32;;;;;;;11.82;7.20;;;27.80;99.40;;;;;;5073359;28;20122;-65
2023/06/22 10:33:58;;;;;;;8.40;7.50;;;27.80;99.30;;;;;;5080083;28;20036;-64
2023/06/22 10:36:24;;;;;;;6.68;5.65;;;27.80;99.30;;;;;;5093304;28;20048;-64
2023/06/22 10:38:52;;;;;;;8.18;6.47;;;27.70;99.00;;;;;;5094307;28;20044;-64
2023/06/22 10:41:18;;;;;;;8.65;7.05;;;27.80;98.60;;;;;;5094013;28;20044;-64
2023/06/22 10:43:47;;;;;;;8.80;5.70;;;27.80;98.60;;;;;;5093503;28;20358;-64
2023/06/22 10:46:13;;;;;;;8.13;6.57;;;27.60;98.30;;;;;;5094247;28;20078;-63
2023/06/22 10:48:40;;;;;;;8.20;6.40;;;27.60;98.40;;;;;;5076240;28;20044;-63
2023/06/22 10:51:06;;;;;;;9.02;6.82;;;27.60;98.70;;;;;;5093935;28;20060;-63
2023/06/22 10:53:32;;;;;;;7.15;5.90;;;27.70;98.80;;;;;;5094066;28;20058;-62
2023/06/22 10:55:58;;;;;;;7.65;6.45;;;27.90;99.00;;;;;;5094402;28;20070;-63
2023/06/22 10:58:27;;;;;;;7.50;6.28;;;27.90;98.90;;;;;;5093245;28;20035;-63
2023/06/22 11:00:53;;;;;;;7.53;5.95;;;27.70;98.70;;;;;;5093908;28;20048;-63
2023/06/22 11:03:19;;;;;;;6.90;5.72;;;27.80;98.50;;;;;;5093516;28;20059;-63
2023/06/22 11:05:47;;;;;;;6.90;5.38;;;27.60;98.30;;;;;;5093798;28;20044;-63
2023/06/22 11:08:14;;;;;;;8.93;6.57;;;27.70;98.70;;;;;;5092925;28;20379;-63
2023/06/22 11:10:40;;;;;;;7.43;6.15;;;27.60;98.70;;;;;;5093443;28;20120;-63
2023/06/22 11:13:09;;;;;;;9.93;6.47;;;27.60;98.90;;;;;;5093466;28;20051;-63
2023/06/22 11:15:36;;;;;;;9.63;6.35;;;27.70;98.80;;;;;;5093811;28;20043;-63
2023/06/22 11:18:05;;;;;;;6.70;5.78;;;27.80;98.80;;;;;;5076447;28;20044;-63
2023/06/22 11:20:34;;;;;;;7.53;5.35;;;27.90;98.70;;;;;;5093587;28;20040;-63
2023/06/22 11:23:00;;;;;;;8.32;6.13;;;28.00;98.80;;;;;;5093251;28;20044;-63
2023/06/22 11:25:26;;;;;;;7.05;6.35;;;27.90;98.50;;;;;;5091026;28;20040;-63
2023/06/22 11:27:53;;;;;;;9.30;7.78;;;27.90;98.50;;;;;;5092680;28;20051;-64
2023/06/22 11:30:19;;;;;;;9.65;8.02;;;27.70;98.50;;;;;;5092698;28;20059;-63
2023/06/22 11:32:46;;;;;;;7.90;6.72;;;27.60;98.20;;;;;;5091472;28;20052;-63
2023/06/22 11:35:12;;;;;;;8.88;6.72;;;27.50;98.50;;;;;;5091196;28;20047;-63
2023/06/22 11:37:38;;;;;;;28.10;10.57;;;27.40;98.80;;;;;;5092276;28;20279;-64
2023/06/22 11:40:08;;;;;;;8.80;7.05;;;27.40;99.00;;;;;;5092317;28;20461;-65
2023/06/22 11:42:35;;;;;;;12.38;6.93;;;27.40;99.10;;;;;;5092378;28;20040;-64
2023/06/22 11:45:02;;;;;;;10.02;6.80;;;27.40;98.90;;;;;;5087274;28;20468;-63
2023/06/22 11:47:29;;;;;;;8.48;6.55;;;27.50;98.90;;;;;;5092992;28;20040;-65
2023/06/22 11:49:55;;;;;;;9.45;8.13;;;27.50;99.00;;;;;;5092346;28;20440;-65
2023/06/22 11:52:21;;;;;;;8.75;7.35;;;27.50;99.10;;;;;;5092634;28;20056;-62
2023/06/22 11:54:48;;;;;;;7.35;6.13;;;27.40;98.90;;;;;;5092097;28;20047;-63
2023/06/22 11:57:14;;;;;;;9.68;7.53;;;27.30;98.90;;;;;;5091777;28;20082;-62
2023/06/22 11:59:40;;;;;;;8.55;6.55;;;27.20;98.70;;;;;;5092197;28;20036;-62
2023/06/22 12:02:07;;;;;;;7.22;6.35;;;27.30;98.70;;;;;;5091966;28;20048;-62
2023/06/22 12:04:33;;;;;;;8.25;6.88;;;27.40;98.80;;;;;;5073845;28;20055;-63
2023/06/22 12:06:59;;;;;;;10.05;7.15;;;27.40;98.90;;;;;;5091646;28;20514;-62
2023/06/22 12:09:26;;;;;;;9.00;7.13;;;27.40;98.80;;;;;;5091801;28;20059;-62
2023/06/22 12:11:52;;;;;;;10.20;6.75;;;27.20;98.60;;;;;;5091775;28;20047;-62
2023/06/22 12:14:18;;;;;;;7.93;7.13;;;27.20;98.70;;;;;;5091523;28;20044;-62
2023/06/22 12:16:45;;;;;;;7.70;7.00;;;27.30;99.00;;;;;;5092437;28;20074;-61
2023/06/22 12:19:11;;;;;;;11.18;7.72;;;27.20;98.90;;;;;;5091720;28;20044;-62
2023/06/22 12:21:39;;;;;;;9.98;7.60;;;27.10;98.70;;;;;;5091646;28;20052;-63
2023/06/22 12:24:05;;;;;;;13.63;7.50;;;27.00;98.60;;;;;;5087941;28;20467;-62
2023/06/22 12:26:31;;;;;;;8.20;7.22;;;27.00;98.80;;;;;;5091136;28;20736;-62
2023/06/22 12:28:57;;;;;;;8.27;6.75;;;27.00;98.80;;;;;;5091499;28;20374;-64
2023/06/22 12:31:24;;;;;;;8.05;7.22;;;27.10;98.60;;;;;;5091722;28;20048;-62